This is the latest recevied weather packets stored in our database for station/object WB8SKP-WX. If no packets are shown the sender has not sent any weather packets the latest 10 day(s).
| Time | Temp. | Humidity | Pressure | Rain* | Wind** | Luminosity | Snow |
|---|---|---|---|---|---|---|---|
| 1777982755 | 16.11° C | 78% | 990.4 hPa | 0 mm | - | - | - |
| 1777981555 | 15.56° C | 79% | 990.3 hPa | 0 mm | - | - | - |
| 1777980325 | 15° C | 80% | 990.2 hPa | 0 mm | - | - | - |
| 1777979125 | 15° C | 81% | 990 hPa | 0 mm | - | - | - |
| 1777977925 | 15° C | 80% | 990 hPa | 0 mm | - | - | - |
| 1777976694 | 15° C | 82% | 990.3 hPa | 0 mm | - | - | - |
| 1777975495 | 15° C | 80% | 990.5 hPa | 0 mm | - | - | - |
| 1777974264 | 15.56° C | 78% | 990.4 hPa | 0 mm | - | - | - |
| 1777973064 | 16.11° C | 74% | 990.3 hPa | 0 mm | - | - | - |
| 1777971864 | 16.67° C | 71% | 990.3 hPa | 0 mm | - | - | - |
| 1777970664 | 17.22° C | 69% | 990.3 hPa | 0 mm | - | - | - |
| 1777969464 | 17.78° C | 66% | 990.1 hPa | 0 mm | - | - | - |
| 1777968234 | 18.33° C | 64% | 990.3 hPa | 0 mm | - | - | - |
| 1777967004 | 18.89° C | 62% | 989.8 hPa | 0 mm | - | - | - |
| 1777965804 | 18.89° C | 61% | 989.5 hPa | 0 mm | - | - | - |
| 1777964574 | 19.44° C | 60% | 989.9 hPa | 0 mm | - | - | - |
| 1777963374 | 19.44° C | 60% | 989.9 hPa | 0 mm | - | - | - |
| 1777962144 | 19.44° C | 60% | 990 hPa | 0 mm | - | - | - |
| 1777960944 | 19.44° C | 59% | 990.5 hPa | 0 mm | - | - | - |
| 1777959744 | 19.44° C | 58% | 990.6 hPa | 0 mm | - | - | - |
| 1777958544 | 20° C | 57% | 990.6 hPa | 0 mm | - | - | - |
| 1777957344 | 20° C | 56% | 990.7 hPa | 0 mm | - | - | - |
| 1777956114 | 20.56° C | 56% | 990.8 hPa | 0 mm | - | - | - |
| 1777954914 | 20.56° C | 56% | 990.8 hPa | 0 mm | - | - | - |
| 1777953684 | 20.56° C | 57% | 990.7 hPa | 0 mm | - | - | - |
* Rain latest hour (hover to see other rain measurements)
** Current wind speed in m/s (hover to see current wind gust speed)